createdAt,value
2017-09-07T00:00:01.054Z,83.80
2017-09-07T00:02:28.481Z,84.30
2017-09-07T00:04:55.912Z,84.60
2017-09-07T00:07:23.365Z,85.10
2017-09-07T00:09:50.830Z,85.10
2017-09-07T00:12:18.276Z,85.70
2017-09-07T00:14:45.740Z,85.40
2017-09-07T00:17:13.190Z,85.40
2017-09-07T00:19:40.656Z,85.70
2017-09-07T00:22:08.092Z,85.90
2017-09-07T00:24:35.552Z,86.10
2017-09-07T00:27:03.001Z,86.40
2017-09-07T00:29:30.475Z,86.80
2017-09-07T00:31:57.919Z,87.20
2017-09-07T00:34:25.347Z,86.70
2017-09-07T00:36:52.812Z,87.20
2017-09-07T00:39:20.257Z,87.30
2017-09-07T00:41:47.734Z,87.70
2017-09-07T00:44:15.180Z,88.00
2017-09-07T00:46:42.615Z,87.90
2017-09-07T00:49:10.088Z,88.20
2017-09-07T00:51:37.528Z,88.20
2017-09-07T00:54:05.142Z,88.00
2017-09-07T00:56:32.581Z,87.70
2017-09-07T00:59:00.048Z,87.50
2017-09-07T01:01:27.481Z,88.20
2017-09-07T01:03:54.944Z,88.60
2017-09-07T01:06:22.407Z,88.60
2017-09-07T01:08:49.840Z,88.40
2017-09-07T01:11:17.292Z,88.80
2017-09-07T01:13:44.751Z,89.60
2017-09-07T01:16:12.216Z,89.80
2017-09-07T01:18:39.656Z,90.00
2017-09-07T01:21:07.116Z,90.10
2017-09-07T01:23:34.580Z,90.10
2017-09-07T01:26:02.015Z,90.80
2017-09-07T01:28:29.528Z,90.40
2017-09-07T01:30:57.139Z,90.60
2017-09-07T01:33:24.609Z,90.80
2017-09-07T01:35:52.043Z,91.00
2017-09-07T01:38:19.508Z,91.60
2017-09-07T01:40:46.965Z,91.40
2017-09-07T01:43:14.411Z,91.50
2017-09-07T01:45:41.880Z,91.60
2017-09-07T01:48:21.316Z,91.70
2017-09-07T01:50:48.793Z,91.80
2017-09-07T01:53:16.248Z,91.90
2017-09-07T01:55:43.706Z,92.00
2017-09-07T01:58:11.154Z,92.00
2017-09-07T02:00:38.616Z,92.00
2017-09-07T02:03:06.057Z,92.00
2017-09-07T02:05:33.516Z,92.10
2017-09-07T02:08:00.956Z,92.10
2017-09-07T02:10:28.392Z,92.10
2017-09-07T02:12:56.624Z,92.60
2017-09-07T02:15:24.061Z,92.20
2017-09-07T02:17:51.528Z,92.10
2017-09-07T02:20:18.977Z,92.30
2017-09-07T02:22:46.444Z,92.30
2017-09-07T02:25:13.886Z,92.40
2017-09-07T02:27:41.320Z,92.40
2017-09-07T02:30:09.558Z,92.60
2017-09-07T02:32:37.632Z,92.70
2017-09-07T02:35:05.091Z,93.20
2017-09-07T02:37:33.060Z,92.90
2017-09-07T02:40:00.516Z,92.60
2017-09-07T02:42:27.958Z,92.60
2017-09-07T02:44:55.406Z,92.30
2017-09-07T02:47:22.977Z,92.50
2017-09-07T02:49:50.449Z,92.70
2017-09-07T02:52:17.912Z,93.00
2017-09-07T02:54:46.120Z,93.60
2017-09-07T02:57:13.580Z,93.30
2017-09-07T02:59:41.047Z,93.90
2017-09-07T03:02:08.496Z,93.50
2017-09-07T03:04:35.948Z,93.60
2017-09-07T03:07:03.379Z,93.80
2017-09-07T03:09:30.848Z,93.80
2017-09-07T03:11:58.280Z,93.90
2017-09-07T03:14:25.743Z,93.70
2017-09-07T03:16:53.179Z,93.70
2017-09-07T03:19:20.643Z,93.70
2017-09-07T03:21:48.075Z,93.90
2017-09-07T03:24:15.513Z,93.80
2017-09-07T03:26:42.971Z,93.80
2017-09-07T03:29:10.426Z,93.90
2017-09-07T03:34:13.525Z,93.80
2017-09-07T03:36:41.096Z,94.00
2017-09-07T03:39:08.527Z,94.00
2017-09-07T03:41:35.980Z,94.00
2017-09-07T03:44:03.449Z,94.00
2017-09-07T03:46:30.895Z,94.20
2017-09-07T03:48:58.350Z,94.50
2017-09-07T03:51:25.785Z,94.50
2017-09-07T03:53:54.008Z,94.40
2017-09-07T03:56:21.449Z,94.40
2017-09-07T03:58:48.908Z,94.30
2017-09-07T04:01:16.401Z,94.10
2017-09-07T04:03:43.839Z,93.90
2017-09-07T04:06:11.412Z,93.70
2017-09-07T04:08:38.844Z,93.80
2017-09-07T04:11:06.304Z,93.90
2017-09-07T04:13:33.782Z,94.00
2017-09-07T04:16:01.320Z,94.10
2017-09-07T04:18:28.756Z,94.20
2017-09-07T04:20:56.216Z,94.10
2017-09-07T04:23:23.675Z,94.20
2017-09-07T04:25:51.107Z,94.30
2017-09-07T04:28:18.640Z,94.40
2017-09-07T04:30:46.863Z,94.50
2017-09-07T04:33:14.316Z,94.50
2017-09-07T04:35:41.751Z,94.40
2017-09-07T04:38:09.190Z,94.50
2017-09-07T04:40:37.411Z,94.60
2017-09-07T04:43:04.848Z,94.50
2017-09-07T04:45:32.310Z,94.60
2017-09-07T04:47:59.756Z,94.90
2017-09-07T04:50:27.205Z,95.00
2017-09-07T04:52:54.656Z,95.50
2017-09-07T04:55:22.120Z,95.20
2017-09-07T04:57:49.563Z,96.30
2017-09-07T05:00:17.072Z,95.20
2017-09-07T05:02:44.523Z,95.20
2017-09-07T05:05:11.965Z,95.60
2017-09-07T05:07:39.436Z,95.30
2017-09-07T05:10:06.899Z,95.70
2017-09-07T05:12:34.337Z,95.20
2017-09-07T05:15:01.799Z,95.30
2017-09-07T05:17:29.241Z,95.10
2017-09-07T05:19:56.731Z,95.10
2017-09-07T05:22:24.134Z,95.50
2017-09-07T05:24:51.611Z,94.90
2017-09-07T05:27:19.055Z,95.10
2017-09-07T05:29:46.497Z,95.10
2017-09-07T05:32:13.968Z,95.20
2017-09-07T05:34:41.424Z,95.50
2017-09-07T05:37:08.902Z,95.30
2017-09-07T05:39:36.335Z,95.40
2017-09-07T05:42:03.791Z,95.30
2017-09-07T05:44:31.232Z,95.30
2017-09-07T05:46:59.451Z,95.30
2017-09-07T05:49:26.908Z,95.30
2017-09-07T05:51:54.351Z,95.10
2017-09-07T05:54:21.807Z,95.30
2017-09-07T05:56:49.263Z,95.10
2017-09-07T05:59:16.720Z,95.20
2017-09-07T06:01:44.172Z,95.50
2017-09-07T06:04:11.643Z,95.10
2017-09-07T06:06:39.117Z,95.00
2017-09-07T06:09:06.580Z,94.80
2017-09-07T06:11:34.019Z,95.00
2017-09-07T06:14:01.488Z,94.90
2017-09-07T06:16:28.963Z,94.50
2017-09-07T06:18:56.450Z,94.60
2017-09-07T06:21:23.904Z,94.80
2017-09-07T06:23:51.347Z,94.50
2017-09-07T06:26:19.563Z,94.40
2017-09-07T06:28:47.008Z,94.40
2017-09-07T06:31:14.966Z,94.20
2017-09-07T06:33:42.412Z,94.30
2017-09-07T06:36:09.849Z,94.40
2017-09-07T06:38:38.068Z,94.60
2017-09-07T06:41:05.511Z,95.00
2017-09-07T06:43:32.984Z,94.80
2017-09-07T06:46:00.425Z,94.40
2017-09-07T06:48:27.890Z,94.20
2017-09-07T06:50:55.338Z,94.10
2017-09-07T06:53:22.803Z,93.70
2017-09-07T06:55:50.267Z,93.70
2017-09-07T06:58:17.708Z,93.80
2017-09-07T07:00:45.156Z,93.80
2017-09-07T07:03:12.588Z,93.70
2017-09-07T07:05:40.813Z,93.50
2017-09-07T07:08:08.256Z,93.50
2017-09-07T07:10:35.715Z,93.40
2017-09-07T07:13:03.152Z,93.50
2017-09-07T07:15:30.627Z,93.60
2017-09-07T07:17:58.064Z,93.90
2017-09-07T07:20:25.528Z,93.70
2017-09-07T07:22:52.996Z,93.60
2017-09-07T07:25:20.425Z,93.40
2017-09-07T07:27:47.888Z,92.70
2017-09-07T07:30:15.316Z,92.40
2017-09-07T07:32:43.552Z,92.30
2017-09-07T07:35:10.992Z,92.20
2017-09-07T07:37:38.470Z,92.10
2017-09-07T07:40:06.633Z,91.70
2017-09-07T07:42:34.080Z,91.80
2017-09-07T07:45:01.536Z,91.60
2017-09-07T07:47:29.008Z,91.30
2017-09-07T07:49:56.473Z,91.10
2017-09-07T07:52:23.936Z,91.00
2017-09-07T07:54:51.404Z,90.90
2017-09-07T07:57:18.842Z,91.10
2017-09-07T07:59:46.306Z,91.10
2017-09-07T08:02:13.743Z,91.00
2017-09-07T08:04:41.205Z,91.10
2017-09-07T08:07:09.409Z,91.20
2017-09-07T08:09:37.644Z,90.80
2017-09-07T08:12:05.110Z,90.50
2017-09-07T08:14:32.568Z,90.20
2017-09-07T08:17:00.027Z,89.90
2017-09-07T08:19:27.504Z,90.40
2017-09-07T08:21:55.722Z,90.30
2017-09-07T08:24:23.185Z,89.90
2017-09-07T08:26:50.636Z,88.70
2017-09-07T08:29:18.109Z,88.80
2017-09-07T08:31:45.569Z,89.10
2017-09-07T08:34:13.016Z,90.10
2017-09-07T08:36:40.496Z,88.40
2017-09-07T08:39:07.957Z,87.40
2017-09-07T08:41:35.423Z,86.40
2017-09-07T08:44:02.885Z,86.50
2017-09-07T08:46:30.328Z,86.80
2017-09-07T08:48:57.784Z,85.60
2017-09-07T08:51:25.242Z,84.00
2017-09-07T08:53:52.688Z,80.50
2017-09-07T08:56:20.932Z,72.10
2017-09-07T08:58:48.361Z,72.10
2017-09-07T09:01:16.584Z,69.60
2017-09-07T09:03:44.038Z,69.60
2017-09-07T09:06:11.508Z,68.70
2017-09-07T09:08:39.733Z,64.30
2017-09-07T09:11:07.181Z,64.20
2017-09-07T09:13:35.400Z,58.40
2017-09-07T09:16:02.850Z,58.40
2017-09-07T09:18:30.309Z,56.70
2017-09-07T09:20:57.748Z,54.70
2017-09-07T09:23:25.336Z,54.80
2017-09-07T09:25:52.780Z,55.70
2017-09-07T09:28:20.240Z,58.70
2017-09-07T09:30:47.676Z,61.10
2017-09-07T09:33:15.140Z,60.00
2017-09-07T09:35:42.596Z,58.80
2017-09-07T09:38:10.058Z,58.60
2017-09-07T09:40:37.521Z,56.70
2017-09-07T09:43:05.734Z,55.80
2017-09-07T09:45:33.958Z,54.70
2017-09-07T09:48:01.415Z,54.70
2017-09-07T09:50:28.853Z,54.80
2017-09-07T09:52:56.313Z,54.60
2017-09-07T09:55:23.752Z,53.50
2017-09-07T09:57:51.224Z,53.70
2017-09-07T10:00:18.690Z,52.50
2017-09-07T10:02:46.145Z,53.30
2017-09-07T10:05:13.596Z,51.60
2017-09-07T10:07:41.120Z,52.60
2017-09-07T10:10:09.345Z,56.90
2017-09-07T10:12:36.789Z,56.80
2017-09-07T10:15:04.269Z,58.70
2017-09-07T10:17:31.758Z,57.60
2017-09-07T10:20:00.034Z,53.60
2017-09-07T10:22:27.528Z,53.60
2017-09-07T10:24:54.964Z,53.90
2017-09-07T10:27:22.436Z,54.10
2017-09-07T10:29:49.874Z,53.60
2017-09-07T10:32:18.081Z,55.40
2017-09-07T10:34:45.545Z,55.30
2017-09-07T10:37:13.013Z,56.90
2017-09-07T10:39:40.471Z,58.30
2017-09-07T10:42:07.941Z,59.00
2017-09-07T10:44:35.378Z,59.40
2017-09-07T10:47:02.858Z,59.70
2017-09-07T10:49:30.295Z,59.80
2017-09-07T10:51:57.760Z,59.30
2017-09-07T10:54:25.204Z,60.30
2017-09-07T10:56:52.654Z,60.50
2017-09-07T10:59:20.120Z,60.00
2017-09-07T11:01:47.565Z,59.90
2017-09-07T11:04:15.058Z,58.70
2017-09-07T11:06:42.504Z,57.60
2017-09-07T11:09:09.944Z,56.20
2017-09-07T11:11:37.455Z,54.80
2017-09-07T11:14:04.888Z,52.80
2017-09-07T11:16:33.119Z,49.60
2017-09-07T11:19:00.611Z,49.50
2017-09-07T11:21:28.066Z,50.30
2017-09-07T11:23:55.493Z,51.30
2017-09-07T11:26:22.942Z,51.00
2017-09-07T11:28:50.421Z,48.60
2017-09-07T11:31:17.854Z,49.10
2017-09-07T11:33:45.373Z,48.90
2017-09-07T11:36:12.816Z,48.70
2017-09-07T11:38:41.292Z,48.60
2017-09-07T11:41:09.497Z,50.00
2017-09-07T11:43:36.971Z,49.40
2017-09-07T11:46:04.415Z,50.80
2017-09-07T11:48:31.856Z,49.50
2017-09-07T11:50:59.293Z,49.90
2017-09-07T11:53:26.750Z,50.60
2017-09-07T11:55:54.955Z,51.70
2017-09-07T11:58:22.412Z,51.40
2017-09-07T12:00:49.845Z,51.20
2017-09-07T12:03:17.319Z,50.70
2017-09-07T12:05:44.776Z,50.90
2017-09-07T12:08:12.242Z,51.10
2017-09-07T12:10:39.683Z,52.00
2017-09-07T12:13:07.131Z,53.10
2017-09-07T12:15:34.673Z,53.80
2017-09-07T12:18:02.112Z,54.70
2017-09-07T12:20:29.579Z,54.50
2017-09-07T12:22:57.045Z,53.80
2017-09-07T12:25:24.520Z,54.00
2017-09-07T12:27:51.955Z,55.00
2017-09-07T12:30:19.393Z,54.60
2017-09-07T12:32:46.851Z,53.00
2017-09-07T12:35:14.317Z,52.90
2017-09-07T12:37:41.779Z,54.10
2017-09-07T12:40:10.044Z,53.50
2017-09-07T12:42:37.610Z,53.50
2017-09-07T12:45:05.040Z,53.70
2017-09-07T12:47:32.501Z,54.20
2017-09-07T12:49:59.952Z,54.80
2017-09-07T12:52:27.413Z,54.70
2017-09-07T12:54:54.984Z,53.20
2017-09-07T12:57:22.425Z,52.90
2017-09-07T12:59:49.888Z,53.70
2017-09-07T13:02:17.330Z,54.80
2017-09-07T13:04:44.797Z,55.20
2017-09-07T13:07:12.235Z,55.20
2017-09-07T13:09:39.700Z,55.20
2017-09-07T13:12:07.152Z,54.00
2017-09-07T13:14:34.611Z,54.60
2017-09-07T13:17:02.068Z,54.80
2017-09-07T13:19:29.628Z,54.20
2017-09-07T13:21:57.096Z,53.90
2017-09-07T13:24:24.559Z,54.10
2017-09-07T13:26:52.013Z,54.50
2017-09-07T13:29:19.473Z,54.50
2017-09-07T13:31:46.929Z,55.10
2017-09-07T13:34:14.400Z,55.20
2017-09-07T13:36:42.617Z,56.20
2017-09-07T13:39:10.077Z,55.70
2017-09-07T13:41:37.540Z,55.70
2017-09-07T13:44:04.975Z,55.10
2017-09-07T13:46:32.454Z,55.20
2017-09-07T13:48:59.899Z,55.60
2017-09-07T13:51:27.361Z,54.80
2017-09-07T13:53:54.800Z,53.60
2017-09-07T13:56:23.108Z,53.10
2017-09-07T13:58:50.559Z,50.40
2017-09-07T14:01:18.002Z,51.30
2017-09-07T14:03:45.465Z,51.10
2017-09-07T14:06:12.905Z,48.80
2017-09-07T14:08:40.376Z,47.90
2017-09-07T14:11:07.825Z,48.00
2017-09-07T14:13:35.295Z,48.40
2017-09-07T14:16:02.747Z,49.50
2017-09-07T14:18:30.190Z,50.70
2017-09-07T14:20:57.648Z,51.40
2017-09-07T14:23:25.084Z,52.20
2017-09-07T14:25:52.540Z,52.90
2017-09-07T14:28:19.976Z,52.80
2017-09-07T14:30:48.187Z,53.20
2017-09-07T14:33:15.646Z,53.10
2017-09-07T14:35:43.081Z,53.30
2017-09-07T14:38:10.542Z,53.20
2017-09-07T14:40:37.989Z,53.60
2017-09-07T14:43:05.509Z,54.00
2017-09-07T14:45:32.969Z,54.30
2017-09-07T14:48:00.424Z,54.20
2017-09-07T14:50:27.869Z,54.20
2017-09-07T14:52:55.346Z,54.20
2017-09-07T14:55:22.779Z,53.80
2017-09-07T14:57:50.224Z,55.40
2017-09-07T15:00:17.692Z,54.40
2017-09-07T15:02:45.136Z,53.80
2017-09-07T15:05:14.445Z,54.00
2017-09-07T15:07:41.893Z,54.40
2017-09-07T15:10:09.478Z,58.60
2017-09-07T15:12:36.935Z,54.90
2017-09-07T15:15:04.375Z,54.40
2017-09-07T15:17:31.841Z,54.30
2017-09-07T15:19:59.312Z,55.20
2017-09-07T15:22:26.768Z,54.60
2017-09-07T15:24:55.053Z,54.50
2017-09-07T15:27:23.274Z,54.40
2017-09-07T15:29:50.709Z,54.30
2017-09-07T15:32:18.180Z,54.00
2017-09-07T15:34:45.640Z,54.40
2017-09-07T15:37:13.071Z,54.20
2017-09-07T15:39:40.551Z,53.80
2017-09-07T15:42:07.997Z,53.10
2017-09-07T15:44:35.435Z,53.40
2017-09-07T15:47:02.901Z,53.80
2017-09-07T15:49:30.356Z,54.10
2017-09-07T15:51:57.816Z,54.20
2017-09-07T15:54:25.270Z,54.50
2017-09-07T15:56:52.735Z,54.40
2017-09-07T15:59:20.204Z,55.10
2017-09-07T16:01:47.664Z,54.70
2017-09-07T16:04:15.096Z,54.60
2017-09-07T16:06:42.619Z,53.80
2017-09-07T16:09:10.847Z,53.90
2017-09-07T16:11:38.304Z,53.90
2017-09-07T16:14:05.749Z,53.60
2017-09-07T16:16:33.235Z,54.00
2017-09-07T16:19:00.676Z,54.30
2017-09-07T16:21:28.142Z,54.00
2017-09-07T16:23:55.596Z,54.50
2017-09-07T16:26:23.049Z,54.60
2017-09-07T16:28:50.529Z,54.90
2017-09-07T16:31:17.996Z,55.20
2017-09-07T16:33:46.211Z,55.60
2017-09-07T16:36:13.726Z,55.60
2017-09-07T16:38:42.025Z,55.90
2017-09-07T16:41:09.520Z,55.80
2017-09-07T16:43:37.008Z,56.40
2017-09-07T16:46:04.484Z,57.00
2017-09-07T16:48:32.680Z,57.60
2017-09-07T16:51:00.169Z,57.60
2017-09-07T16:53:27.640Z,57.80
2017-09-07T16:55:55.120Z,58.20
2017-09-07T16:58:22.606Z,58.10
2017-09-07T17:00:50.072Z,57.70
2017-09-07T17:03:17.589Z,57.50
2017-09-07T17:05:45.817Z,57.70
2017-09-07T17:08:13.285Z,57.80
2017-09-07T17:10:40.728Z,58.10
2017-09-07T17:13:08.198Z,58.20
2017-09-07T17:15:35.651Z,58.40
2017-09-07T17:18:03.181Z,58.80
2017-09-07T17:20:30.650Z,59.10
2017-09-07T17:22:58.102Z,59.20
2017-09-07T17:25:25.578Z,59.30
2017-09-07T17:27:53.011Z,59.40
2017-09-07T17:30:20.481Z,59.70
2017-09-07T17:32:47.942Z,60.00
2017-09-07T17:35:15.373Z,60.40
2017-09-07T17:37:42.888Z,60.70
2017-09-07T17:40:10.338Z,61.10
2017-09-07T17:42:37.789Z,61.60
2017-09-07T17:45:05.284Z,61.80
2017-09-07T17:47:33.540Z,62.40
2017-09-07T17:50:02.190Z,63.50
2017-09-07T17:52:29.640Z,62.70
2017-09-07T17:54:57.875Z,63.10
2017-09-07T17:57:26.079Z,63.30
2017-09-07T17:59:53.616Z,63.30
2017-09-07T18:02:21.060Z,63.70
2017-09-07T18:04:48.520Z,64.10
2017-09-07T18:07:16.758Z,64.30
2017-09-07T18:09:44.231Z,64.30
2017-09-07T18:12:11.684Z,64.40
2017-09-07T18:14:39.146Z,64.40
2017-09-07T18:17:07.393Z,65.10
2017-09-07T18:19:34.872Z,65.10
2017-09-07T18:22:02.340Z,65.40
2017-09-07T18:24:30.562Z,65.60
2017-09-07T18:26:58.029Z,65.60
2017-09-07T18:29:25.492Z,65.70
2017-09-07T18:31:53.001Z,66.10
2017-09-07T18:34:20.451Z,66.40
2017-09-07T18:36:47.888Z,66.50
2017-09-07T18:39:15.378Z,66.80
2017-09-07T18:41:42.815Z,67.00
2017-09-07T18:44:10.289Z,67.30
2017-09-07T18:46:37.747Z,67.70
2017-09-07T18:49:05.195Z,68.20
2017-09-07T18:51:32.657Z,68.40
2017-09-07T18:54:00.108Z,68.80
2017-09-07T18:56:27.668Z,69.30
2017-09-07T18:58:55.144Z,69.30
2017-09-07T19:01:22.625Z,69.50
2017-09-07T19:03:50.072Z,69.80
2017-09-07T19:06:17.574Z,70.10
2017-09-07T19:08:45.780Z,70.20
2017-09-07T19:11:13.340Z,70.10
2017-09-07T19:13:40.826Z,70.50
2017-09-07T19:16:08.281Z,70.70
2017-09-07T19:18:37.203Z,70.70
2017-09-07T19:21:05.432Z,71.40
2017-09-07T19:23:32.910Z,71.00
2017-09-07T19:26:00.399Z,70.50
2017-09-07T19:28:28.653Z,70.70
2017-09-07T19:30:56.151Z,70.70
2017-09-07T19:33:24.342Z,71.20
2017-09-07T19:35:51.840Z,71.00
2017-09-07T19:38:19.304Z,70.90
2017-09-07T19:40:46.791Z,71.00
2017-09-07T19:43:14.240Z,71.50
2017-09-07T19:45:42.469Z,71.20
2017-09-07T19:48:09.944Z,71.10
2017-09-07T19:50:37.425Z,71.40
2017-09-07T19:53:04.886Z,71.60
2017-09-07T19:55:33.553Z,71.80
2017-09-07T19:58:01.780Z,72.20
2017-09-07T20:00:29.363Z,71.80
2017-09-07T20:02:56.845Z,72.10
2017-09-07T20:05:25.076Z,72.30
2017-09-07T20:07:52.554Z,72.20
2017-09-07T20:10:20.012Z,72.40
2017-09-07T20:12:47.468Z,72.40
2017-09-07T20:15:14.927Z,72.60
2017-09-07T20:17:42.378Z,72.90
2017-09-07T20:20:09.840Z,73.00
2017-09-07T20:22:37.299Z,74.10
2017-09-07T20:25:04.771Z,73.40
2017-09-07T20:27:32.204Z,73.60
2017-09-07T20:29:59.664Z,74.10
2017-09-07T20:32:27.115Z,74.20
2017-09-07T20:34:54.554Z,74.30
2017-09-07T20:37:22.019Z,74.40
2017-09-07T20:39:49.469Z,74.90
2017-09-07T20:42:16.941Z,75.10
2017-09-07T20:44:44.393Z,75.50
2017-09-07T20:47:11.837Z,75.60
2017-09-07T20:49:40.084Z,75.70
2017-09-07T20:52:07.564Z,75.70
2017-09-07T20:54:35.017Z,76.00
2017-09-07T20:57:02.486Z,76.80
2017-09-07T20:59:29.928Z,76.40
2017-09-07T21:01:57.367Z,76.40
2017-09-07T21:04:24.842Z,76.10
2017-09-07T21:06:52.296Z,75.90
2017-09-07T21:09:19.787Z,76.10
2017-09-07T21:11:47.246Z,76.10
2017-09-07T21:14:14.704Z,76.10
2017-09-07T21:16:42.152Z,75.80
2017-09-07T21:19:09.651Z,76.30
2017-09-07T21:21:37.113Z,76.30
2017-09-07T21:24:04.570Z,76.60
2017-09-07T21:26:32.786Z,77.00
2017-09-07T21:29:00.229Z,77.00
2017-09-07T21:31:27.695Z,77.60
2017-09-07T21:33:55.125Z,77.70
2017-09-07T21:36:22.594Z,78.10
2017-09-07T21:38:50.060Z,77.90
2017-09-07T21:41:18.258Z,78.20
2017-09-07T21:43:46.494Z,79.00
2017-09-07T21:46:13.937Z,78.40
2017-09-07T21:48:41.407Z,78.40
2017-09-07T21:51:08.846Z,78.40
2017-09-07T21:53:36.303Z,78.80
2017-09-07T21:56:03.763Z,79.20
2017-09-07T21:58:31.213Z,79.20
2017-09-07T22:00:58.691Z,79.50
2017-09-07T22:03:26.135Z,79.80
2017-09-07T22:05:53.585Z,80.20
2017-09-07T22:08:21.051Z,80.40
2017-09-07T22:10:48.508Z,80.70
2017-09-07T22:13:15.949Z,80.80
2017-09-07T22:15:43.416Z,81.00
2017-09-07T22:18:10.856Z,81.20
2017-09-07T22:20:38.309Z,81.40
2017-09-07T22:23:05.769Z,81.40
2017-09-07T22:25:33.211Z,81.70
2017-09-07T22:28:01.437Z,81.90
2017-09-07T22:30:28.883Z,81.80
2017-09-07T22:32:56.332Z,82.00
2017-09-07T22:35:23.789Z,82.20
2017-09-07T22:37:51.295Z,82.40
2017-09-07T22:40:19.556Z,83.30
2017-09-07T22:42:47.019Z,82.50
2017-09-07T22:45:14.454Z,82.60
2017-09-07T22:47:41.920Z,82.70
2017-09-07T22:50:09.402Z,82.60
2017-09-07T22:52:37.595Z,84.20
2017-09-07T22:55:05.121Z,83.20
2017-09-07T22:57:32.613Z,83.30
2017-09-07T23:00:00.052Z,83.10
2017-09-07T23:02:28.261Z,83.30
2017-09-07T23:04:55.719Z,83.30
2017-09-07T23:07:23.179Z,83.40
2017-09-07T23:09:50.633Z,83.60
2017-09-07T23:12:18.098Z,83.10
2017-09-07T23:14:45.548Z,83.40
2017-09-07T23:17:12.998Z,83.30
2017-09-07T23:19:40.456Z,83.60
2017-09-07T23:22:07.892Z,83.60
2017-09-07T23:24:35.357Z,83.80
2017-09-07T23:27:02.791Z,84.00
2017-09-07T23:29:30.258Z,84.00
2017-09-07T23:31:57.693Z,84.00
2017-09-07T23:34:25.937Z,83.50
2017-09-07T23:36:53.387Z,83.60
2017-09-07T23:39:20.853Z,83.30
2017-09-07T23:41:48.301Z,83.30
2017-09-07T23:44:15.778Z,83.40
2017-09-07T23:46:43.218Z,83.40
2017-09-07T23:49:10.672Z,83.60
2017-09-07T23:51:38.113Z,83.50
2017-09-07T23:54:05.576Z,83.70
2017-09-07T23:56:33.017Z,83.60
2017-09-07T23:59:00.488Z,83.30
